• Join FlightAware (Why Join?)
  • Login
  • US Flag 
07:55PM EDT


 

Airport Tracker/Info


-or-


 

Live Flight TrackerFlight Track Log ✈ N717TW ✈ 27-Apr-2012 ✈ KSFO - KJFK

Flight Track Log - Related Links

Times and Time Zones

All times are in EDT time to prevent confusion due to time zone crossing. See the N717TW flight status page for this flight to view local times or setup timezone preferences in your user account.

Time Position Orientation Groundspeed Altitude Reporting Facility
EDT Latitude Longitude Course Direction KTS MPH feet Rate Location/Type
11:39AM 37.6333 -122.3667 50° Northeast 159 183 1,200  Level Northern Cal TRACON
11:40AM 37.6667 -122.3167 47° Northeast 205 236 3,100 2,220 Climbing Northern Cal TRACON
11:41AM 37.7167 -122.2500 63° Northeast 247 284 5,700 2,820 Climbing Northern Cal TRACON
11:42AM 37.7500 -122.1667 70° East 268 308 8,800 2,220 Climbing Northern Cal TRACON
11:44AM 37.8089 -121.9567 70° East 319 367 12,600 1,800 Climbing Oakland Center
11:45AM 37.8453 -121.8308 71° East 349 402 14,400 1,920 Climbing Oakland Center
11:46AM 37.8817 -121.6972 73° East 380 437 16,500 2,100 Climbing Oakland Center
11:47AM 37.9200 -121.5422 77° East 401 461 18,600 1,920 Climbing Oakland Center
11:48AM 37.9478 -121.3897 76° East 424 488 20,400 1,860 Climbing Oakland Center
11:49AM 37.9775 -121.2369 75° East 437 503 22,400 1,920 Climbing Oakland Center
11:50AM 38.0111 -121.0817 76° East 442 509 24,300 1,680 Climbing Oakland Center
11:51AM 38.0425 -120.9208 77° East 454 522 25,800 1,380 Climbing Oakland Center
11:52AM 38.0714 -120.7572 75° East 461 531 27,100 1,260 Climbing Oakland Center
11:53AM 38.1064 -120.5881 77° East 477 549 28,400 1,440 Climbing Oakland Center
11:54AM 38.1369 -120.4136 76° East 492 566 30,000 1,560 Climbing Oakland Center
11:55AM 38.1694 -120.2444 76° East 492 566 31,600 1,380 Climbing Oakland Center
11:56AM 38.2017 -120.0750 76° East 486 559 32,800 1,140 Climbing Oakland Center
11:57AM 38.2336 -119.9053 78° East 491 565 33,900 1,080 Climbing Oakland Center
11:58AM 38.2631 -119.7303 77° East 491 565 35,000 540 Climbing Oakland Center
11:59AM 38.2944 -119.5606 79° East 491 565 35,000  Level Oakland Center
12:00PM 38.3194 -119.3931 77° East 485 558 35,000  Level Oakland Center
12:01PM 38.3506 -119.2231 77° East 485 558 35,000  Level Oakland Center
12:02PM 38.3811 -119.0475 78° East 491 565 35,000  Level Oakland Center
12:03PM 38.4094 -118.8717 78° East 496 571 35,000  Level Oakland Center
12:04PM 38.4394 -118.6933 78° East 502 578 35,000  Level Oakland Center
12:05PM 38.4694 -118.5197 79° East 507 583 35,000  Level Oakland Center
12:06PM 38.4969 -118.3439 78° East 507 583 35,000  Level Oakland Center
12:07PM 38.5261 -118.1647 76° East 507 583 35,000  Level Oakland Center
12:08PM 38.5556 -118.0097 79° East 501 577 35,000  Level Oakland Center
12:09PM 38.5753 -117.8747 78° East 508 585 35,000  Level Salt Lake Center
12:10PM 38.6036 -117.6981 79° East 506 582 35,000  Level Salt Lake Center
12:11PM 38.6314 -117.5206 79° East 505 581 35,000  Level Salt Lake Center
12:12PM 38.6589 -117.3419 79° East 507 583 35,000  Level Salt Lake Center
12:13PM 38.6869 -117.1622 79° East 510 587 35,000  Level Salt Lake Center
12:14PM 38.7136 -116.9822 79° East 510 587 35,000  Level Salt Lake Center
12:15PM 38.7411 -116.8014 79° East 513 590 35,000  Level Salt Lake Center
12:16PM 38.7731 -116.5844 79° East 514 592 35,000  Level Salt Lake Center
12:17PM 38.7997 -116.4036 80° East 514 592 35,000  Level Salt Lake Center
12:18PM 38.8256 -116.2217 79° East 516 594 35,000  Level Salt Lake Center
12:19PM 38.8522 -116.0389 80° East 518 596 35,000  Level Salt Lake Center
12:20PM 38.8783 -115.8567 80° East 520 598 35,000  Level Salt Lake Center
12:21PM 38.9036 -115.6742 80° East 519 597 35,000  Level Salt Lake Center
12:22PM 38.9289 -115.4917 80° East 518 596 35,000  Level Salt Lake Center
12:23PM 38.9575 -115.2856 80° East 519 597 35,000  Level Salt Lake Center
12:24PM 38.9839 -115.1006 80° East 519 597 35,000  Level Salt Lake Center
12:25PM 39.0081 -114.9164 80° East 517 595 35,000  Level Salt Lake Center
12:27PM 39.0322 -114.7328 80° East 514 592 35,000  Level Salt Lake Center
12:28PM 39.0569 -114.5483 80° East 514 592 35,000  Level Salt Lake Center
12:29PM 39.0811 -114.3642 81° East 514 592 35,000  Level Salt Lake Center
12:30PM 39.1047 -114.1775 81° East 517 595 35,000  Level Salt Lake Center
12:31PM 39.1328 -113.9542 81° East 518 596 35,000  Level Salt Lake Center
12:32PM 39.1561 -113.7644 81° East 524 603 35,000  Level Salt Lake Center
12:33PM 39.1783 -113.5753 81° East 525 604 35,000  Level Salt Lake Center
12:34PM 39.2008 -113.3886 81° East 521 600 35,000  Level Salt Lake Center
12:35PM 39.2231 -113.2000 81° East 522 601 35,000  Level Salt Lake Center
12:36PM 39.2456 -113.0111 82° East 523 602 35,000  Level Salt Lake Center
12:37PM 39.2667 -112.8222 82° East 523 602 35,000  Level Salt Lake Center
12:38PM 39.2894 -112.6231 74° East 522 601 35,000  Level Salt Lake Center
12:39PM 39.3281 -112.4458 66° East 512 589 35,000  Level Salt Lake Center
12:40PM 39.3872 -112.2750 64° Northeast 518 596 35,000  Level Salt Lake Center
12:41PM 39.4489 -112.1075 64° Northeast 513 590 35,000  Level Salt Lake Center
12:42PM 39.5108 -111.9400 65° Northeast 513 590 35,000  Level Salt Lake Center
12:43PM 39.5722 -111.7719 65° Northeast 513 590 35,000  Level Salt Lake Center
12:44PM 39.6428 -111.5758 65° Northeast 512 589 35,000  Level Salt Lake Center
12:45PM 39.7028 -111.4072 65° Northeast 512 589 35,000  Level Salt Lake Center
12:46PM 39.7636 -111.2364 65° Northeast 510 587 35,000  Level Salt Lake Center
12:47PM 39.8203 -111.0778 66° East 508 585 35,000  Level Salt Lake Center
12:48PM 39.8842 -110.8939 65° Northeast 503 579 35,000  Level Salt Lake Center
12:49PM 39.9397 -110.7350 66° East 503 579 35,000  Level Salt Lake Center
12:50PM 40.0036 -110.5500 65° Northeast 502 578 35,000  Level Salt Lake Center
12:51PM 40.0592 -110.3914 66° East 502 578 35,000  Level Salt Lake Center
12:52PM 40.1228 -110.2058 63° Northeast 502 578 35,000  Level Salt Lake Center
12:53PM 40.1825 -110.0492 60° Northeast 502 578 35,000  Level Salt Lake Center
12:54PM 40.2500 -109.8983 60° Northeast 502 578 35,000  Level Salt Lake Center
12:55PM 40.3281 -109.7197 60° Northeast 504 580 35,000  Level Salt Lake Center
12:56PM 40.3942 -109.5672 60° Northeast 504 580 35,000  Level Salt Lake Center
12:58PM 40.4719 -109.3867 60° Northeast 506 582 35,000  Level Salt Lake Center
12:59PM 40.5389 -109.2317 61° Northeast 508 585 35,000  Level Salt Lake Center
01:00PM 40.6114 -109.0600 61° Northeast 506 582 35,000  Level Salt Lake Center
01:01PM 40.6772 -108.9058 61° Northeast 507 583 35,000  Level Salt Lake Center
01:02PM 40.7539 -108.7242 61° Northeast 509 586 35,000  Level Salt Lake Center
01:03PM 40.8178 -108.5706 61° Northeast 505 581 35,000  Level Salt Lake Center
01:04PM 40.8917 -108.3933 61° Northeast 500 575 35,000  Level Salt Lake Center
01:05PM 40.9556 -108.2403 61° Northeast 499 574 35,000  Level Salt Lake Center
01:06PM 41.0289 -108.0622 62° Northeast 497 572 35,000  Level Salt Lake Center
01:07PM 41.0906 -107.9103 62° Northeast 495 570 35,000  Level Salt Lake Center
01:08PM 41.1600 -107.7342 62° Northeast 488 562 35,000  Level Salt Lake Center
01:09PM 41.2122 -107.6050 62° Northeast 487 560 35,000 120 Level Denver Center
01:10PM 41.2697 -107.4597 62° Northeast 487 560 35,300 600 Climbing Denver Center
01:11PM 41.3400 -107.2839 62° Northeast 482 555 36,300 840 Climbing Denver Center
01:12PM 41.4036 -107.1239 61° Northeast 482 555 37,000 300 Climbing Denver Center
01:13PM 41.4689 -106.9667 63° Northeast 482 555 37,000  Level Denver Center
01:14PM 41.5258 -106.8200 62° Northeast 482 555 37,000  Level Denver Center
01:15PM 41.5928 -106.6511 60° Northeast 472 543 37,000  Level Denver Center
01:16PM 41.6514 -106.5125 62° Northeast 472 543 37,000  Level Denver Center
01:17PM 41.7139 -106.3539 63° Northeast 477 549 37,000  Level Denver Center
01:18PM 41.7822 -106.1756 64° Northeast 483 556 37,000  Level Denver Center
01:19PM 41.8422 -106.0136 79° East 491 565 37,000  Level Denver Center
01:20PM 41.8644 -105.8519 81° East 484 557 37,000  Level Denver Center
01:22PM 41.9056 -105.4806 82° East 479 551 37,000  Level Denver Center
01:23PM 41.9247 -105.3014 81° East 479 551 37,000  Level Denver Center
01:24PM 41.9535 -105.0570 81° East 481 554 37,000  Level FlightAware ADS-B
01:24PM 41.9635 -104.9670 82° East 477 549 37,000  Level FlightAware ADS-B
01:25PM 41.9730 -104.8790 82° East 477 549 37,000  Level FlightAware ADS-B
01:25PM 41.9826 -104.7900 82° East 475 547 37,000  Level FlightAware ADS-B
01:26PM 41.9931 -104.6920 82° East 476 548 37,000  Level FlightAware ADS-B
01:27PM 42.0026 -104.6020 82° East 475 547 37,000  Level FlightAware ADS-B
01:27PM 42.0119 -104.5140 82° East 474 545 37,000  Level FlightAware ADS-B
01:28PM 42.0215 -104.4220 82° East 474 545 37,000  Level FlightAware ADS-B
01:28PM 42.0308 -104.3320 82° East 472 543 37,000  Level FlightAware ADS-B
01:29PM 42.0399 -104.2430 82° East 471 542 37,000  Level FlightAware ADS-B
01:29PM 42.0489 -104.1550 82° East 470 541 37,000  Level FlightAware ADS-B
01:30PM 42.0597 -104.0480 82° East 470 541 37,000  Level FlightAware ADS-B
01:30PM 42.0684 -103.9610 82° East 471 542 37,000  Level FlightAware ADS-B
01:31PM 42.0772 -103.8730 82° East 471 542 37,000  Level FlightAware ADS-B
01:31PM 42.0861 -103.7830 83° East 468 539 37,000  Level FlightAware ADS-B
01:32PM 42.0946 -103.6950 82° East 466 536 37,000  Level FlightAware ADS-B
01:32PM 42.1033 -103.6060 83° East 465 535 37,000  Level FlightAware ADS-B
01:33PM 42.1115 -103.5210 83° East 462 532 37,000  Level FlightAware ADS-B
01:33PM 42.1197 -103.4350 83° East 460 529 37,000  Level FlightAware ADS-B
01:34PM 42.1280 -103.3470 83° East 458 527 37,000  Level FlightAware ADS-B
01:34PM 42.1360 -103.2620 83° East 456 525 37,000  Level FlightAware ADS-B
01:35PM 42.1438 -103.1780 83° East 453 521 37,000  Level FlightAware ADS-B
01:35PM 42.1517 -103.0930 83° East 451 519 37,000  Level FlightAware ADS-B
01:36PM 42.1598 -103.0040 83° East 449 517 37,000  Level FlightAware ADS-B
01:36PM 42.1675 -102.9190 83° East 447 514 37,000  Level FlightAware ADS-B
01:37PM 42.1750 -102.8360 83° East 446 513 37,000  Level FlightAware ADS-B
01:37PM 42.1824 -102.7530 83° East 445 512 37,000  Level FlightAware ADS-B
01:38PM 42.1901 -102.6660 83° East 443 510 37,000  Level FlightAware ADS-B
01:38PM 42.1976 -102.5800 83° East 442 509 37,000  Level FlightAware ADS-B
01:39PM 42.2048 -102.4980 83° East 443 510 37,000  Level FlightAware ADS-B
01:39PM 42.2123 -102.4130 84° East 442 509 37,000  Level FlightAware ADS-B
01:40PM 42.2196 -102.3260 83° East 441 507 37,000  Level FlightAware ADS-B
01:41PM 42.2368 -102.1220 84° East 440 506 37,000  Level FlightAware ADS-B
01:43PM 42.2519 -101.9069 83° East 430 495 37,000  Level Denver Center
01:44PM 42.2661 -101.7431 83° East 430 495 37,000  Level Denver Center
01:45PM 42.2789 -101.5961 84° East 430 495 37,000  Level Denver Center
01:46PM 42.2911 -101.4408 85° East 422 486 37,000  Level Denver Center
01:47PM 42.3039 -101.2572 84° East 435 501 37,000  Level Denver Center
01:48PM 42.3169 -101.0903 84° East 450 518 37,000  Level Denver Center
01:49PM 42.3286 -100.9375 84° East 450 518 37,000  Level Denver Center
01:50PM 42.3411 -100.7650 84° East 444 511 37,000  Level Denver Center
01:51PM 42.3553 -100.5894 86° East 444 511 37,000  Level Denver Center
01:52PM 42.3636 -100.4256 85° East 432 497 37,000  Level Denver Center
01:53PM 42.3728 -100.2842 84° East 425 489 37,000  Level Denver Center
01:54PM 42.3836 -100.1367 84° East 411 473 37,000  Level Denver Center
01:55PM 42.4011 -99.8981 84° East 411 473 37,000  Level Minneapolis Center
01:56PM 42.4117 -99.7503 85° East 416 479 37,000  Level Minneapolis Center
01:57PM 42.4231 -99.5883 86° East 428 493 37,000  Level Minneapolis Center
01:58PM 42.4319 -99.4231 85° East 433 498 37,000  Level Minneapolis Center
01:59PM 42.4431 -99.2556 86° East 442 509 37,000  Level Minneapolis Center
02:00PM 42.4517 -99.0903 86° East 442 509 37,000  Level Minneapolis Center
02:01PM 42.4603 -98.9222 85° East 442 509 37,000  Level Minneapolis Center
02:02PM 42.4706 -98.7544 86° East 442 509 37,000  Level Minneapolis Center
02:03PM 42.4789 -98.5750 86° East 452 520 37,000  Level Minneapolis Center
02:04PM 42.4872 -98.3983 86° East 464 534 37,000  Level Minneapolis Center
02:05PM 42.4969 -98.2244 87° East 464 534 37,000  Level Minneapolis Center
02:06PM 42.5044 -98.0478 86° East 464 534 37,000  Level Minneapolis Center
02:07PM 42.5139 -97.8683 89° East 464 534 37,000  Level Minneapolis Center
02:08PM 42.5167 -97.6883 87° East 464 534 37,000  Level Minneapolis Center
02:09PM 42.5236 -97.5086 86° East 469 540 37,000  Level Minneapolis Center
02:10PM 42.5322 -97.3261 86° East 480 552 37,000  Level Minneapolis Center
02:11PM 42.5406 -97.1436 87° East 480 552 37,000  Level Minneapolis Center
02:12PM 42.5464 -96.9667 86° East 475 547 37,000  Level Minneapolis Center
02:13PM 42.5561 -96.7897 88° East 475 547 37,000  Level Minneapolis Center
02:14PM 42.5614 -96.6125 88° East 470 541 37,000  Level Minneapolis Center
02:15PM 42.5664 -96.4353 88° East 470 541 37,000  Level Minneapolis Center
02:16PM 42.5708 -96.2636 87° East 465 535 37,000  Level Minneapolis Center
02:17PM 42.5772 -96.0894 88° East 460 529 37,000  Level Minneapolis Center
02:18PM 42.5814 -95.9092 88° East 460 529 37,000  Level Minneapolis Center
02:19PM 42.5853 -95.7292 87° East 460 529 37,000  Level Minneapolis Center
02:20PM 42.5908 -95.5575 88° East 460 529 37,000  Level Minneapolis Center
02:21PM 42.5942 -95.3772 88° East 467 537 37,000  Level Minneapolis Center
02:22PM 42.5992 -95.1969 89° East 467 537 37,000  Level Minneapolis Center
02:23PM 42.6019 -95.0194 88° East 472 543 37,000  Level Minneapolis Center
02:24PM 42.6064 -94.8422 89° East 472 543 37,000  Level Minneapolis Center
02:25PM 42.6086 -94.6619 92° East 472 543 37,000  Level Minneapolis Center
02:26PM 42.6042 -94.4644 88° East 477 549 37,000  Level Minneapolis Center
02:27PM 42.6078 -94.2814 90° East 477 549 37,000  Level Minneapolis Center
02:29PM 42.6072 -93.9375 89° East 483 556 37,000  Level Chicago Center
02:30PM 42.6103 -93.7569 90° East 478 550 37,000  Level Chicago Center
02:31PM 42.6108 -93.5764 90° East 478 550 37,000  Level Chicago Center
02:32PM 42.6108 -93.3958 89° East 478 550 37,000  Level Chicago Center
02:33PM 42.6131 -93.2125 90° East 478 550 37,000  Level Chicago Center
02:34PM 42.6128 -93.0292 90° East 478 550 37,000  Level Chicago Center
02:35PM 42.6125 -92.8428 90° East 478 550 37,000  Level Chicago Center
02:36PM 42.6114 -92.6592 89° East 478 550 37,000  Level Chicago Center
02:37PM 42.6125 -92.4758 91° East 478 550 37,000  Level Chicago Center
02:38PM 42.6111 -92.2925 90° East 478 550 37,000  Level Chicago Center
02:39PM 42.6114 -92.1064 91° East 478 550 37,000  Level Chicago Center
02:40PM 42.6094 -91.9200 91° East 483 556 37,000  Level Chicago Center
02:41PM 42.6069 -91.7533 92° East 488 562 37,000  Level Chicago Center
02:42PM 42.6022 -91.5642 90° East 493 567 37,000  Level Chicago Center
02:43PM 42.6017 -91.3722 90° East 499 574 37,000  Level Chicago Center
02:44PM 42.6006 -91.1889 92° East 499 574 37,000  Level Chicago Center
02:45PM 42.5950 -90.9997 91° East 499 574 37,000  Level Chicago Center
02:46PM 42.5917 -90.7911 90° East 499 574 37,000  Level Chicago Center
02:47PM 42.5917 -90.6050 92° East 499 574 37,000  Level Chicago Center
02:48PM 42.5872 -90.4214 93° East 493 567 37,000  Level Chicago Center
02:49PM 42.5806 -90.2325 91° East 498 573 37,000  Level Chicago Center
02:50PM 42.5778 -90.0436 94° East 498 573 37,000  Level Chicago Center
02:51PM 42.5683 -89.8600 93° East 498 573 37,000  Level Chicago Center
02:52PM 42.5606 -89.6683 92° East 507 583 37,000  Level Chicago Center
02:53PM 42.5547 -89.4794 93° East 507 583 37,000  Level Chicago Center
02:54PM 42.5483 -89.2906 92° East 507 583 37,000  Level Chicago Center
02:55PM 42.5439 -89.0933 94° East 507 583 37,000  Level Chicago Center
02:56PM 42.5350 -88.9047 93° East 512 589 37,000  Level Chicago Center
02:57PM 42.5281 -88.7103 93° East 518 596 37,000  Level Chicago Center
02:58PM 42.5206 -88.5161 92° East 518 596 37,000  Level Chicago Center
02:59PM 42.5147 -88.3217 93° East 512 589 37,000  Level Chicago Center
03:00PM 42.5064 -88.1247 93° East 503 579 37,000  Level Chicago Center
03:01PM 42.4981 -87.9333 88° East 516 594 37,000  Level Chicago Center
03:02PM 42.5019 -87.7475 90° East 516 594 37,000  Level Chicago Center
03:03PM 42.5011 -87.5503 90° East 503 579 37,000  Level Chicago Center
03:04PM 42.5019 -87.3558 91° East 503 579 37,000  Level Chicago Center
03:05PM 42.4983 -87.1589 91° East 511 588 37,100  Climbing Chicago Center
03:06PM 42.4967 -86.9619 90° East 517 595 37,000 -60 Descending Chicago Center
03:07PM 42.4967 -86.7703 93° East 512 589 37,000  Level Chicago Center
03:08PM 42.4900 -86.5792 91° East 517 595 37,000  Level Chicago Center
03:09PM 42.4872 -86.3792 90° East 517 595 37,000  Level Chicago Center
03:10PM 42.4861 -86.1850 91° East 512 589 37,000  Level Chicago Center
03:11PM 42.4828 -85.9881 91° East 517 595 37,000  Level Chicago Center
03:12PM 42.4789 -85.7911 92° East 517 595 37,000  Level Chicago Center
03:14PM 42.4689 -85.4228 91° East 542 624 37,000  Level Cleveland Center
03:15PM 42.4647 -85.2167 93° East 542 624 37,000  Level Cleveland Center
03:16PM 42.4581 -85.0192 91° East 537 618 37,000  Level Cleveland Center
03:17PM 42.4553 -84.8192 93° East 537 618 37,000  Level Cleveland Center
03:18PM 42.4467 -84.5933 95° East 537 618 37,000  Level Cleveland Center
03:19PM 42.4328 -84.3869 95° East 537 618 37,000  Level Cleveland Center
03:20PM 42.4200 -84.2033 94° East 537 618 37,000  Level Cleveland Center
03:21PM 42.4094 -84.0031 95° East 537 618 37,000  Level Cleveland Center
03:22PM 42.3967 -83.7942 95° East 544 626 37,000  Level Cleveland Center
03:23PM 42.3817 -83.5742 94° East 538 619 37,000  Level Cleveland Center
03:24PM 42.3700 -83.3739 95° East 543 625 37,000  Level Cleveland Center
03:25PM 42.3561 -83.1683 96° East 545 627 37,000  Level Cleveland Center
03:26PM 42.3417 -82.9681 95° East 545 627 37,000  Level Cleveland Center
03:27PM 42.3289 -82.7656 96° East 535 616 37,000 -60 Level Cleveland Center
03:28PM 42.3136 -82.5853 95° East 542 624 36,900  Descending Cleveland Center
03:29PM 42.3003 -82.3856 96° East 542 624 37,000  Climbing Cleveland Center
03:30PM 42.2844 -82.1828 97° East 541 623 37,000  Level Cleveland Center
03:31PM 42.2644 -81.9608 95° East 541 623 37,000  Level Cleveland Center
03:32PM 42.2500 -81.7583 96° East 541 623 37,000  Level Cleveland Center
03:33PM 42.2331 -81.5592 96° East 534 615 37,000  Level Cleveland Center
03:34PM 42.2158 -81.3542 97° East 544 626 37,000  Level Cleveland Center
03:35PM 42.1983 -81.1550 97° East 539 620 37,000  Level Cleveland Center
03:36PM 42.1803 -80.9503 97° East 544 626 37,000  Level Cleveland Center
03:37PM 42.1619 -80.7456 96° East 544 626 37,000  Level Cleveland Center
03:38PM 42.1475 -80.5664 97° East 544 626 37,000  Level Cleveland Center
03:39PM 42.1286 -80.3619 97° East 539 620 37,000  Level Cleveland Center
03:40PM 42.1092 -80.1578 97° East 545 627 37,000  Level Cleveland Center
03:41PM 42.0917 -79.9564 98° East 540 621 37,000  Level Cleveland Center
03:42PM 42.0717 -79.7581 98° East 540 621 37,000  Level Cleveland Center
03:43PM 42.0514 -79.5569 99° East 540 621 37,000  Level Cleveland Center
03:44PM 42.0283 -79.3533 97° East 540 621 37,000  Level Cleveland Center
03:45PM 42.0094 -79.1553 98° East 540 621 37,000  Level Cleveland Center
03:46PM 41.9881 -78.9544 98° East 540 621 37,000  Level Cleveland Center
03:47PM 41.9664 -78.7539 98° East 540 621 37,000  Level Cleveland Center
03:48PM 41.9442 -78.5536 98° East 540 621 37,000  Level Cleveland Center
03:50PM 41.8989 -78.1417 99° East 532 612 37,000  Level New York Center
03:51PM 41.8744 -77.9272 106° East 532 612 37,000  Level New York Center
03:52PM 41.8322 -77.7275 110° East 537 618 37,000  Level New York Center
03:53PM 41.7808 -77.5358 110° East 549 632 37,000  Level New York Center
03:54PM 41.7289 -77.3442 110° East 554 638 37,000 -540 Level New York Center
03:55PM 41.6769 -77.1503 110° East 554 638 36,000 -1,020 Descending New York Center
03:56PM 41.6247 -76.9567 110° East 554 638 35,000 -540 Descending New York Center
03:57PM 41.5722 -76.7631 110° East 554 638 35,000  Level New York Center
03:58PM 41.5087 -76.5286 110° East 559 643 35,000  Level FlightAware ADS-B
03:59PM 41.4799 -76.4243 110° East 559 643 35,000 -480 Level FlightAware ADS-B
03:59PM 41.4496 -76.3159 110° East 559 643 34,500 -1,020 Descending FlightAware ADS-B
04:00PM 41.4216 -76.2159 110° East 563 648 33,900 -1,200 Descending FlightAware ADS-B
04:00PM 41.3929 -76.1136 111° Southeast 564 649 33,300 -2,100 Descending FlightAware ADS-B
04:01PM 41.3630 -76.0075 110° East 567 652 31,700 -3,780 Descending FlightAware ADS-B
04:01PM 41.3350 -75.9077 111° Southeast 585 673 29,400 -4,020 Descending FlightAware ADS-B
04:02PM 41.3042 -75.7992 111° Southeast 589 678 27,600 -3,120 Descending FlightAware ADS-B
04:02PM 41.2731 -75.6936 113° Southeast 578 665 26,100 -2,820 Descending FlightAware ADS-B
04:03PM 41.2389 -75.5871 114° Southeast 567 652 24,600 -2,580 Descending FlightAware ADS-B
04:03PM 41.2067 -75.4904 114° Southeast 549 632 23,400 -1,620 Descending FlightAware ADS-B
04:04PM 41.1765 -75.4003 114° Southeast 535 616 23,000 -420 Descending FlightAware ADS-B
04:04PM 41.1441 -75.3045 114° Southeast 505 581 23,000  Level FlightAware ADS-B
04:05PM 41.1158 -75.2211 114° Southeast 482 555 23,000  Level FlightAware ADS-B
04:05PM 41.0883 -75.1401 114° Southeast 479 551 23,000  Level FlightAware ADS-B
04:06PM 41.0583 -75.0519 114° Southeast 483 556 23,000  Level FlightAware ADS-B
04:07PM 41.0303 -74.9696 114° Southeast 487 560 23,000 -300 Level FlightAware ADS-B
04:07PM 41.0154 -74.9252 111° Southeast 493 567 22,800 -960 Descending FlightAware ADS-B
04:07PM 41.0080 -74.9000 106° East 493 567 22,600 -1,140 Descending FlightAware ADS-B
04:07PM 40.9930 -74.8310 100° East 484 557 22,200 -1,020 Descending FlightAware ADS-B
04:08PM 40.9817 -74.7443 98° East 470 541 21,700 -1,020 Descending FlightAware ADS-B
04:08PM 40.9722 -74.6556 98° East 462 532 21,200 -1,020 Descending FlightAware ADS-B
04:09PM 40.9635 -74.5725 98° East 453 521 20,700 -1,020 Descending FlightAware ADS-B
04:09PM 40.9543 -74.4876 98° East 444 511 20,200 -1,380 Descending FlightAware ADS-B
04:10PM 40.9453 -74.4049 98° East 432 497 19,300 -1,200 Descending FlightAware ADS-B
04:10PM 40.9360 -74.3221 98° East 430 495 19,000 -300 Descending FlightAware ADS-B
04:11PM 40.9273 -74.2448 103° East 412 474 19,000  Level FlightAware ADS-B
04:11PM 40.9220 -74.2141 114° Southeast 399 459 19,000  Level FlightAware ADS-B
04:11PM 40.9127 -74.1866 126° Southeast 387 445 19,000  Level FlightAware ADS-B
04:12PM 40.9008 -74.1647 138° Southeast 379 436 19,000  Level FlightAware ADS-B
04:12PM 40.8864 -74.1473 149° Southeast 371 427 19,000 -300 Level FlightAware ADS-B
04:12PM 40.8387 -74.1101 151° Southeast 361 415 18,800 -1,140 Descending FlightAware ADS-B
04:13PM 40.7922 -74.0758 151° Southeast 355 409 17,800 -1,860 Descending FlightAware ADS-B
04:13PM 40.7689 -74.0586 152° Southeast 352 405 17,300 -1,920 Descending FlightAware ADS-B
04:14PM 40.7294 -74.0305 157° South 344 396 16,400 -2,100 Descending FlightAware ADS-B
04:14PM 40.7219 -74.0264 166° South 339 390 16,200 -2,100 Descending FlightAware ADS-B
04:14PM 40.7004 -74.0192 169° South 325 374 15,700 -2,460 Descending FlightAware ADS-B
04:15PM 40.6502 -74.0065 169° South 319 367 14,200 -2,760 Descending FlightAware ADS-B
04:15PM 40.6459 -74.0054 170° South 319 367 14,000 -2,160 Descending FlightAware ADS-B
04:15PM 40.6063 -73.9960 170° South 319 367 13,100 -1,440 Descending FlightAware ADS-B
04:15PM 40.5844 -73.9909 170° South 319 367 13,000 -180 Descending FlightAware ADS-B
04:16PM 40.5519 -73.9835 171° South 314 361 13,000 -120 Level FlightAware ADS-B
04:16PM 40.5081 -73.9741 171° South 317 365 12,900 -1,200 Descending FlightAware ADS-B
04:17PM 40.4644 -73.9647 167° South 309 356 11,800 -2,340 Descending FlightAware ADS-B
04:17PM 40.4485 -73.9600 159° South 312 359 11,300 -2,640 Descending FlightAware ADS-B
04:17PM 40.4427 -73.9570 148° Southeast 316 364 11,100 -2,340 Descending FlightAware ADS-B
04:17PM 40.4312 -73.9474 137° Southeast 320 368 10,800 -2,400 Descending FlightAware ADS-B
04:17PM 40.4149 -73.9274 135° Southeast 320 368 10,100 -2,580 Descending FlightAware ADS-B
04:18PM 40.3967 -73.9037 135° Southeast 319 367 9,400 -1,920 Descending FlightAware ADS-B
04:18PM 40.3807 -73.8829 133° Southeast 307 353 9,100 -1,200 Descending FlightAware ADS-B
04:18PM 40.3751 -73.8750 125° Southeast 301 346 9,000 -900 Descending FlightAware ADS-B
04:18PM 40.3689 -73.8632 114° Southeast 299 344 8,900 -960 Descending FlightAware ADS-B
04:18PM 40.3662 -73.8553 102° East 294 338 8,800 -1,320 Descending FlightAware ADS-B
04:18PM 40.3640 -73.8412 89° East 284 327 8,600 -1,140 Descending FlightAware ADS-B
04:18PM 40.3641 -73.8292 77° East 271 312 8,500 -720 Descending FlightAware ADS-B
04:19PM 40.3669 -73.8135 60° Northeast 258 297 8,400 -1,200 Descending FlightAware ADS-B
04:19PM 40.3753 -73.7943 56° Northeast 247 284 8,000 -1,620 Descending FlightAware ADS-B
04:19PM 40.3848 -73.7761 52° Northeast 241 277 7,600 -1,680 Descending FlightAware ADS-B
04:19PM 40.3994 -73.7513 42° Northeast 234 269 7,000 -1,800 Descending FlightAware ADS-B
04:20PM 40.4039 -73.7460 38° Northeast 228 262 6,800 -2,040 Descending FlightAware ADS-B
04:20PM 40.4196 -73.7297 35° Northeast 228 262 6,200 -2,220 Descending FlightAware ADS-B
04:20PM 40.4343 -73.7160 34° Northeast 233 268 5,500 -2,220 Descending FlightAware ADS-B
04:20PM 40.4514 -73.7007 32° Northeast 235 270 4,900 -1,320 Descending FlightAware ADS-B
04:21PM 40.4736 -73.6822 29° Northeast 213 245 4,400 -960 Descending New York Center
04:22PM 40.5161 -73.6511 345° North 206 237 3,500 -1,140 Descending New York Center
04:23PM 40.5594 -73.6667 324° Northwest 161 185 2,200 -960 Descending New York Center
04:24PM 40.5919 -73.6981 313° West 142 163 1,600 -660 Descending New York Center
04:25PM 40.6167 -73.7333 313° West 114 131 900 -660 Descending New York TRACON